Airfield :







YOU CAN JOIN US ON...

 
LOGIN :

Register | Disclaimer

   EN    FR    IT 

 









Legend :    VFR   Marginal VFR   IFR   Intensive IFR   Very Intensive IFR
Visi :
Ceiling :
>= 8 km
>= 3000ft
5 to 8 km
1000 to 3000 ft
1500m to 5 km
500 to 1000 ft
800 to 1500m
200 to 500 ft
< 800m
< 200 ft
Symbols :   Thunderstorms  Fog  Heavy snow  Heavy precipitations  Wind > 20 kt






- Airport Elevation : 403 ft
- IATA code : YKG


CYAS - Kangirsuk

CURRENT METAR :
  • 062100Z 28005KT 15SM BKN033 M17/M21 A2970 RMK SC7 SLP072

EXPIRED METARs :
  • 062000Z 26008KT 15SM FEW006 BKN036 M18/M21 A2969 RMK SF1SC7 SF TR SLP068
  • 061900Z 00000KT 15SM FEW006 SCT060 BKN120 M17/M21 A2967 RMK SF1SC4AC1 SF TR SLP062

TAF AMD TAF CYAS
Valid from the 06 at 15:00 until the 06 at 22:00 UTC


061503Z 0615/0622 30012KT P6SM SCT030 BKN060
TEMPO 0615/0622 P6SM -SN FEW008 BKN030 RMK NXT FCST WILL BE ISSUED AT 071445Z



MET'MAP, your aeronautical weather chart ! - Copyright ORBIFLY December 2007 - Disclaimer

ORBIFLY MET'MAP TEAM :

Programming & Development : Alexandra Zaïnal
Concept & original design : Baudouin d'Aumeries
Assistance for programming : Marc-Olivier Méhu
Technical & hardware support : Manuel Goepfert

Contact : metmap@orbifly.com




SOURCES & CREDITS :

   NOAA